createdAt,value
2022-11-24T00:04:51.931Z,23.23
2022-11-24T00:09:55.436Z,20.13
2022-11-24T00:15:01.258Z,23.47
2022-11-24T00:20:05.315Z,24.10
2022-11-24T00:25:09.247Z,24.43
2022-11-24T00:30:13.143Z,21.20
2022-11-24T00:35:16.435Z,21.37
2022-11-24T00:40:19.942Z,21.17
2022-11-24T00:45:23.100Z,19.93
2022-11-24T00:50:26.714Z,19.80
2022-11-24T00:55:30.292Z,21.07
2022-11-24T01:00:33.834Z,20.67
2022-11-24T01:05:38.818Z,19.10
2022-11-24T01:10:42.343Z,21.33
2022-11-24T01:15:45.957Z,22.63
2022-11-24T01:20:49.601Z,21.50
2022-11-24T01:25:53.143Z,23.37
2022-11-24T01:31:05.878Z,21.10
2022-11-24T01:36:09.232Z,21.47
2022-11-24T01:41:17.681Z,22.73
2022-11-24T01:46:39.631Z,23.93
2022-11-24T01:51:52.894Z,23.13
2022-11-24T01:57:03.313Z,23.63
2022-11-24T02:02:07.174Z,22.80
2022-11-24T02:07:13.669Z,23.83
2022-11-24T02:12:17.382Z,23.27
2022-11-24T02:17:20.806Z,23.53
2022-11-24T02:22:51.562Z,24.63
2022-11-24T02:27:56.400Z,24.53
2022-11-24T02:33:00.502Z,25.47
2022-11-24T02:38:04.262Z,27.87
2022-11-24T02:43:14.183Z,26.33
2022-11-24T02:48:18.048Z,26.37
2022-11-24T02:53:21.392Z,26.77
2022-11-24T02:58:24.863Z,25.13
2022-11-24T03:03:28.679Z,24.27
2022-11-24T03:08:32.372Z,23.60
2022-11-24T03:13:35.856Z,23.10
2022-11-24T03:18:39.322Z,22.77
2022-11-24T03:23:42.811Z,22.97
2022-11-24T03:28:45.968Z,22.40
2022-11-24T03:33:49.493Z,20.90
2022-11-24T03:38:52.805Z,21.70
2022-11-24T03:43:56.239Z,21.67
2022-11-24T03:48:59.989Z,20.70
2022-11-24T03:54:03.454Z,21.63
2022-11-24T03:59:06.824Z,20.20
2022-11-24T04:04:12.439Z,20.17
2022-11-24T04:09:16.049Z,21.87
2022-11-24T04:14:19.904Z,20.80
2022-11-24T04:19:23.405Z,21.87
2022-11-24T04:24:26.844Z,23.17
2022-11-24T04:29:30.532Z,25.13
2022-11-24T04:34:34.043Z,21.03
2022-11-24T04:39:37.625Z,23.30
2022-11-24T04:44:41.904Z,22.83
2022-11-24T04:49:45.424Z,26.83
2022-11-24T04:54:49.832Z,23.90
2022-11-24T04:59:54.655Z,24.80
2022-11-24T05:04:57.939Z,22.50
2022-11-24T05:10:19.449Z,24.17
2022-11-24T05:15:22.709Z,20.07
2022-11-24T05:20:27.060Z,22.57
2022-11-24T05:25:31.031Z,21.53
2022-11-24T05:30:34.666Z,22.07
2022-11-24T05:35:39.418Z,19.90
2022-11-24T05:40:43.831Z,20.33
2022-11-24T05:45:47.174Z,21.70
2022-11-24T05:50:58.008Z,18.83
2022-11-24T05:56:04.879Z,22.43
2022-11-24T06:01:08.668Z,20.13
2022-11-24T06:06:12.289Z,20.37
2022-11-24T06:11:18.179Z,23.43
2022-11-24T06:16:21.758Z,22.40
2022-11-24T06:21:25.319Z,24.43
2022-11-24T06:26:28.939Z,25.03
2022-11-24T06:31:32.455Z,23.97
2022-11-24T06:36:36.216Z,21.57
2022-11-24T06:41:40.499Z,22.73
2022-11-24T06:46:43.778Z,22.53
2022-11-24T06:51:47.554Z,21.57
2022-11-24T06:56:56.383Z,20.30
2022-11-24T07:01:59.919Z,20.53
2022-11-24T07:07:03.670Z,19.13
2022-11-24T07:12:07.194Z,20.20
2022-11-24T07:17:10.717Z,20.63
2022-11-24T07:22:14.618Z,21.17
2022-11-24T07:27:18.088Z,21.30
2022-11-24T07:32:21.993Z,21.50
2022-11-24T07:37:30.897Z,20.73
2022-11-24T07:42:35.094Z,21.80
2022-11-24T07:47:42.121Z,20.50
2022-11-24T07:52:45.668Z,18.67
2022-11-24T07:57:49.767Z,20.47
2022-11-24T08:02:53.550Z,21.53
2022-11-24T08:07:57.142Z,19.67
2022-11-24T08:13:04.504Z,20.73
2022-11-24T08:18:07.799Z,25.63
2022-11-24T08:23:11.418Z,23.30
2022-11-24T08:28:15.644Z,19.87
2022-11-24T08:33:18.947Z,23.30
2022-11-24T08:38:23.390Z,23.97
2022-11-24T08:43:27.471Z,25.30
2022-11-24T08:48:40.298Z,26.43
2022-11-24T08:53:44.739Z,21.70
2022-11-24T08:58:48.209Z,24.93
2022-11-24T09:03:52.602Z,20.20
2022-11-24T09:08:59.177Z,21.67
2022-11-24T09:14:05.512Z,22.23
2022-11-24T09:19:09.417Z,20.33
2022-11-24T09:24:13.067Z,17.20
2022-11-24T09:29:17.129Z,19.13
2022-11-24T09:34:21.980Z,19.53
2022-11-24T09:39:28.521Z,19.13
2022-11-24T09:45:07.213Z,18.50
2022-11-24T09:50:32.435Z,21.23
2022-11-24T09:55:51.941Z,21.30
2022-11-24T10:00:57.159Z,19.43
2022-11-24T10:06:04.584Z,22.00
2022-11-24T10:11:31.796Z,20.77
2022-11-24T10:17:49.844Z,20.23
2022-11-24T10:23:37.015Z,21.47
2022-11-24T10:28:54.144Z,22.10
2022-11-24T10:34:10.198Z,20.73
2022-11-24T10:39:37.132Z,22.77
2022-11-24T10:44:42.797Z,21.53
2022-11-24T10:50:13.906Z,22.37
2022-11-24T10:55:17.810Z,22.20
2022-11-24T11:00:21.167Z,23.00
2022-11-24T11:05:34.114Z,23.50
2022-11-24T11:10:37.309Z,24.67
2022-11-24T11:15:40.716Z,23.37
2022-11-24T11:20:55.550Z,21.97
2022-11-24T11:26:18.252Z,21.63
2022-11-24T11:31:23.008Z,21.53
2022-11-24T11:36:27.680Z,21.23
2022-11-24T11:41:35.429Z,20.73
2022-11-24T11:46:39.196Z,22.40
2022-11-24T11:51:59.759Z,20.80
2022-11-24T11:57:12.727Z,21.07
2022-11-24T12:02:38.038Z,21.50
2022-11-24T12:08:21.052Z,22.30
2022-11-24T12:13:49.427Z,23.73
2022-11-24T12:19:16.266Z,23.87
2022-11-24T12:24:47.633Z,22.43
2022-11-24T12:30:18.870Z,22.70
2022-11-24T12:35:43.471Z,20.63
2022-11-24T12:47:04.347Z,21.53
2022-11-24T12:52:23.601Z,24.50
2022-11-24T12:57:33.210Z,22.87
2022-11-24T13:02:45.680Z,21.20
2022-11-24T13:07:56.709Z,22.30
2022-11-24T13:13:11.798Z,21.60
2022-11-24T13:18:47.501Z,20.50
2022-11-24T13:24:02.406Z,21.50
2022-11-24T13:29:18.260Z,21.20
2022-11-24T13:34:40.044Z,22.10
2022-11-24T13:39:58.909Z,22.87
2022-11-24T13:45:05.175Z,23.37
2022-11-24T13:50:25.050Z,22.47
2022-11-24T13:55:40.590Z,22.03
2022-11-24T14:01:21.375Z,22.37
2022-11-24T14:06:40.112Z,22.53
2022-11-24T14:11:44.565Z,24.47
2022-11-24T14:16:47.861Z,22.17
2022-11-24T14:21:51.141Z,20.17
2022-11-24T14:26:54.601Z,21.70
2022-11-24T14:32:03.994Z,21.40
2022-11-24T14:37:10.738Z,22.57
2022-11-24T14:42:22.071Z,20.47
2022-11-24T14:47:36.666Z,21.17
2022-11-24T14:52:51.855Z,19.30
2022-11-24T14:58:00.780Z,20.13
2022-11-24T15:03:19.816Z,18.37
2022-11-24T15:08:26.092Z,19.87
2022-11-24T15:13:34.451Z,22.90
2022-11-24T15:18:44.301Z,19.20
2022-11-24T15:24:06.732Z,20.03
2022-11-24T15:29:11.575Z,21.37
2022-11-24T15:34:17.571Z,20.40
2022-11-24T15:39:20.842Z,20.67
2022-11-24T15:44:24.590Z,20.93
2022-11-24T15:49:28.241Z,22.17
2022-11-24T15:54:31.486Z,22.20
2022-11-24T15:59:36.064Z,22.47
2022-11-24T16:04:42.342Z,22.97
2022-11-24T16:09:46.654Z,22.60
2022-11-24T16:14:50.171Z,22.10
2022-11-24T16:20:00.240Z,19.70
2022-11-24T16:25:05.332Z,22.77
2022-11-24T16:30:12.645Z,21.07
2022-11-24T16:35:16.504Z,22.50
2022-11-24T16:40:20.078Z,24.83
2022-11-24T16:45:23.782Z,23.23
2022-11-24T16:50:27.613Z,24.37
2022-11-24T16:55:31.152Z,23.87
2022-11-24T17:00:34.980Z,23.03
2022-11-24T17:05:38.643Z,22.47
2022-11-24T17:10:42.802Z,25.83
2022-11-24T17:15:53.803Z,21.40
2022-11-24T17:21:03.212Z,23.10
2022-11-24T17:26:16.533Z,24.13
2022-11-24T17:31:27.075Z,24.27
2022-11-24T17:36:34.638Z,21.43
2022-11-24T17:41:41.042Z,21.87
2022-11-24T17:46:45.579Z,23.57
2022-11-24T17:51:51.093Z,22.53
2022-11-24T17:56:56.415Z,23.10
2022-11-24T18:02:00.842Z,23.40
2022-11-24T18:07:05.542Z,25.87
2022-11-24T18:12:10.182Z,25.73
2022-11-24T18:17:16.902Z,26.40
2022-11-24T18:22:43.067Z,26.60
2022-11-24T18:27:46.679Z,25.87
2022-11-24T18:32:53.499Z,25.93
2022-11-24T18:38:01.191Z,25.43
2022-11-24T18:43:08.149Z,25.97
2022-11-24T18:48:13.747Z,26.17
2022-11-24T18:53:22.091Z,27.60
2022-11-24T18:58:32.147Z,28.37
2022-11-24T19:04:04.002Z,27.03
2022-11-24T19:09:14.642Z,26.37
2022-11-24T19:14:23.546Z,26.20
2022-11-24T19:19:29.971Z,27.27
2022-11-24T19:24:36.955Z,27.03
2022-11-24T19:29:43.149Z,27.40
2022-11-24T19:34:48.638Z,28.37
2022-11-24T19:39:53.010Z,31.03
2022-11-24T19:44:58.339Z,30.87
2022-11-24T19:50:07.347Z,29.83
2022-11-24T19:55:17.390Z,34.47
2022-11-24T20:00:22.899Z,30.90
2022-11-24T20:05:27.989Z,29.43
2022-11-24T20:10:32.970Z,31.37
2022-11-24T20:15:38.118Z,34.07
2022-11-24T20:20:44.569Z,31.13
2022-11-24T20:25:50.979Z,32.30
2022-11-24T20:30:56.529Z,31.83
2022-11-24T20:36:28.588Z,32.53
2022-11-24T20:41:37.519Z,30.23
2022-11-24T20:46:48.698Z,31.33
2022-11-24T20:51:56.530Z,29.57
2022-11-24T20:57:02.483Z,27.87
2022-11-24T21:02:06.406Z,28.67
2022-11-24T21:07:15.130Z,31.90
2022-11-24T21:12:19.521Z,29.50
2022-11-24T21:17:23.612Z,29.87
2022-11-24T21:22:28.760Z,33.27
2022-11-24T21:27:32.737Z,32.67
2022-11-24T21:32:37.242Z,32.40
2022-11-24T21:37:42.781Z,32.13
2022-11-24T21:42:49.013Z,35.10
2022-11-24T21:47:53.848Z,35.27
2022-11-24T21:53:03.225Z,33.20
2022-11-24T21:58:08.279Z,31.63
2022-11-24T22:03:12.689Z,32.90
2022-11-24T22:08:17.588Z,33.17
2022-11-24T22:13:21.458Z,32.37
2022-11-24T22:18:24.691Z,35.80
2022-11-24T22:23:28.910Z,28.77
2022-11-24T22:28:37.031Z,29.97
2022-11-24T22:33:41.106Z,30.37
2022-11-24T22:38:46.348Z,28.93
2022-11-24T22:43:51.070Z,28.20
2022-11-24T22:48:55.749Z,28.37
2022-11-24T22:54:01.879Z,26.77
2022-11-24T22:59:05.723Z,25.73
2022-11-24T23:04:09.347Z,25.57
2022-11-24T23:09:13.220Z,26.07
2022-11-24T23:14:17.429Z,24.33
2022-11-24T23:19:21.631Z,24.03
2022-11-24T23:24:25.260Z,25.13
2022-11-24T23:29:28.899Z,23.53
2022-11-24T23:34:32.825Z,23.27
2022-11-24T23:39:36.168Z,23.27
2022-11-24T23:44:39.226Z,25.60
2022-11-24T23:49:42.701Z,21.47
